createdAt,value
2017-02-23T00:00:04.731Z,67.44
2017-02-23T00:00:09.104Z,67.47
2017-02-23T00:00:13.596Z,67.47
2017-02-23T00:00:18.256Z,67.29
2017-02-23T00:00:22.914Z,67.57
2017-02-23T00:00:27.580Z,67.19
2017-02-23T00:00:32.088Z,67.38
2017-02-23T00:00:36.748Z,67.38
2017-02-23T00:00:41.251Z,67.29
2017-02-23T00:00:45.936Z,67.29
2017-02-23T00:00:50.575Z,67.19
2017-02-23T00:00:55.218Z,67.1
2017-02-23T00:00:59.875Z,67.29
2017-02-23T00:01:04.540Z,67.38
2017-02-23T00:01:09.190Z,67.38
2017-02-23T00:01:13.711Z,67.29
2017-02-23T00:01:18.215Z,67.38
2017-02-23T00:01:22.845Z,67.57
2017-02-23T00:01:27.487Z,67.19
2017-02-23T00:01:32.140Z,67.57
2017-02-23T00:01:36.814Z,67.57
2017-02-23T00:01:41.321Z,67.57
2017-02-23T00:01:45.671Z,67.29
2017-02-23T00:01:50.149Z,67.29
2017-02-23T00:01:54.656Z,67.47
2017-02-23T00:01:59.162Z,67.57
2017-02-23T00:02:03.906Z,67.57
2017-02-23T00:02:08.385Z,67.38
2017-02-23T00:02:12.879Z,67.47
2017-02-23T00:02:17.382Z,67.47
2017-02-23T00:02:22.020Z,67.47
2017-02-23T00:02:26.672Z,67.47
2017-02-23T00:02:31.325Z,67.29
2017-02-23T00:02:35.954Z,67.29
2017-02-23T00:02:40.619Z,67.47
2017-02-23T00:02:45.260Z,67.38
2017-02-23T00:02:49.915Z,67.38
2017-02-23T00:02:54.554Z,67.29
2017-02-23T00:02:59.040Z,67.29
2017-02-23T00:03:03.682Z,67.29
2017-02-23T00:03:08.185Z,67.38
2017-02-23T00:03:12.831Z,67.29
2017-02-23T00:03:17.508Z,67.29
2017-02-23T00:03:22.142Z,67.29
2017-02-23T00:03:26.782Z,67.29
2017-02-23T00:03:31.434Z,67.38
2017-02-23T00:03:36.059Z,67.47
2017-02-23T00:03:40.710Z,67.47
2017-02-23T00:03:45.366Z,67.29
2017-02-23T00:03:50.019Z,67.47
2017-02-23T00:03:54.675Z,67.29
2017-02-23T00:03:59.186Z,67.29
2017-02-23T00:04:03.821Z,67.38
2017-02-23T00:04:08.473Z,67.38
2017-02-23T00:04:12.669Z,67.38
2017-02-23T00:04:17.169Z,67.19
2017-02-23T00:04:21.842Z,67.29
2017-02-23T00:04:26.463Z,67.1
2017-02-23T00:04:31.110Z,67.29
2017-02-23T00:04:35.808Z,67.1
2017-02-23T00:04:40.451Z,67.1
2017-02-23T00:04:44.936Z,67.1
2017-02-23T00:04:49.284Z,67.1
2017-02-23T00:04:53.931Z,67.1
2017-02-23T00:04:58.583Z,66.97
2017-02-23T00:05:03.533Z,67
2017-02-23T00:05:08.022Z,66.91
2017-02-23T00:05:12.517Z,67.1
2017-02-23T00:05:17.149Z,66.87
2017-02-23T00:05:21.792Z,67.1
2017-02-23T00:05:26.277Z,67.19
2017-02-23T00:05:30.913Z,67.1
2017-02-23T00:05:35.564Z,67.19
2017-02-23T00:05:40.070Z,67.25
2017-02-23T00:05:44.557Z,67.29
2017-02-23T00:05:49.071Z,67.38
2017-02-23T00:05:53.708Z,67.44
2017-02-23T00:05:58.351Z,67.25
2017-02-23T00:06:02.997Z,67.38
2017-02-23T00:06:07.650Z,67.47
2017-02-23T00:06:12.296Z,67.44
2017-02-23T00:06:16.828Z,67.47
2017-02-23T00:06:21.185Z,67.44
2017-02-23T00:06:25.810Z,67.44
2017-02-23T00:06:30.293Z,67.38
2017-02-23T00:06:34.927Z,67.44
2017-02-23T00:06:39.588Z,67.29
2017-02-23T00:06:44.257Z,67.47
2017-02-23T00:06:48.735Z,67.25
2017-02-23T00:06:53.377Z,67.25
2017-02-23T00:06:58.023Z,67.35
2017-02-23T00:07:02.863Z,67.38
2017-02-23T00:07:07.371Z,67.38
2017-02-23T00:07:11.870Z,67.35
2017-02-23T00:07:16.350Z,67.35
2017-02-23T00:07:20.850Z,67.38
2017-02-23T00:07:25.489Z,67.35
2017-02-23T00:07:30.152Z,67.44
2017-02-23T00:07:34.806Z,67.29
2017-02-23T00:07:39.436Z,67.44
2017-02-23T00:07:43.917Z,67.44
2017-02-23T00:07:48.561Z,67.35
2017-02-23T00:07:53.205Z,67.54
2017-02-23T00:07:57.856Z,67.44
2017-02-23T00:08:02.347Z,67.44
2017-02-23T00:08:06.834Z,67.47
2017-02-23T00:08:11.311Z,67.44
2017-02-23T00:08:15.673Z,67.25
2017-02-23T00:08:20.320Z,67.29
2017-02-23T00:08:24.941Z,67.29
2017-02-23T00:08:29.576Z,67.25
2017-02-23T00:08:34.234Z,67.29
2017-02-23T00:08:38.874Z,67.25
2017-02-23T00:08:43.368Z,67.35
2017-02-23T00:08:47.879Z,67.25
2017-02-23T00:08:52.539Z,67
2017-02-23T00:08:57.197Z,67.25
2017-02-23T00:09:01.828Z,67.38
2017-02-23T00:09:06.392Z,66.97
2017-02-23T00:09:11.068Z,66.87
2017-02-23T00:09:15.426Z,67.38
2017-02-23T00:09:20.081Z,67.35
2017-02-23T00:09:24.561Z,67.19
2017-02-23T00:09:29.210Z,67.38
2017-02-23T00:09:33.856Z,67.1
2017-02-23T00:09:38.513Z,67.25
2017-02-23T00:09:43.015Z,67.16
2017-02-23T00:09:47.524Z,67.35
2017-02-23T00:09:52.156Z,67.16
2017-02-23T00:09:56.808Z,67.07
2017-02-23T00:10:01.452Z,67.16
2017-02-23T00:10:05.965Z,67.16
2017-02-23T00:10:10.308Z,67.16
2017-02-23T00:10:14.808Z,67.25
2017-02-23T00:10:19.312Z,67.29
2017-02-23T00:10:23.676Z,67.16
2017-02-23T00:10:28.307Z,67.35
2017-02-23T00:10:32.942Z,67.07
2017-02-23T00:10:37.446Z,67.19
2017-02-23T00:10:42.101Z,67.25
2017-02-23T00:10:46.749Z,67.16
2017-02-23T00:10:51.418Z,67.07
2017-02-23T00:10:56.046Z,67.16
2017-02-23T00:11:00.686Z,67.16
2017-02-23T00:11:05.364Z,67.16
2017-02-23T00:11:09.884Z,67.16
2017-02-23T00:11:14.232Z,67.16
2017-02-23T00:11:18.872Z,66.87
2017-02-23T00:11:23.507Z,66.87
2017-02-23T00:11:28.144Z,66.97
2017-02-23T00:11:32.767Z,67.35
2017-02-23T00:11:37.420Z,67.07
2017-02-23T00:11:42.086Z,67.25
2017-02-23T00:11:46.285Z,67.35
2017-02-23T00:11:50.940Z,67.35
2017-02-23T00:11:55.585Z,67.25
2017-02-23T00:12:00.238Z,67.25
2017-02-23T00:12:04.835Z,67.35
2017-02-23T00:12:09.032Z,67.25
2017-02-23T00:12:13.387Z,67.35
2017-02-23T00:12:18.045Z,67.35
2017-02-23T00:12:22.688Z,67.54
2017-02-23T00:12:27.193Z,67.44
2017-02-23T00:12:31.870Z,67.16
2017-02-23T00:12:36.504Z,67.35
2017-02-23T00:12:41.000Z,67.92
2017-02-23T00:12:45.635Z,67.16
2017-02-23T00:12:50.275Z,68.01
2017-02-23T00:12:54.921Z,67.16
2017-02-23T00:12:59.548Z,67.92
2017-02-23T00:13:04.288Z,67.25
2017-02-23T00:13:08.933Z,67.16
2017-02-23T00:13:13.574Z,67.35
2017-02-23T00:13:18.085Z,68.11
2017-02-23T00:13:22.738Z,67.35
2017-02-23T00:13:27.373Z,67.92
2017-02-23T00:13:32.046Z,67.92
2017-02-23T00:13:36.690Z,68.01
2017-02-23T00:13:41.346Z,67.92
2017-02-23T00:13:45.904Z,67.73
2017-02-23T00:13:50.573Z,67.73
2017-02-23T00:13:55.094Z,67.82
2017-02-23T00:13:59.729Z,67.92
2017-02-23T00:14:04.625Z,68.11
2017-02-23T00:14:08.959Z,68.01
2017-02-23T00:14:13.357Z,68.11
2017-02-23T00:14:17.992Z,68.11
2017-02-23T00:14:22.626Z,67.82
2017-02-23T00:14:27.282Z,67.82
2017-02-23T00:14:31.920Z,68.11
2017-02-23T00:14:36.605Z,68.11
2017-02-23T00:14:41.254Z,68.01
2017-02-23T00:14:45.887Z,67.82
2017-02-23T00:14:50.383Z,68.11
2017-02-23T00:14:54.872Z,68.11
2017-02-23T00:14:59.509Z,67.92
2017-02-23T00:15:04.159Z,68.01
2017-02-23T00:15:08.644Z,67.92
2017-02-23T00:15:13.295Z,68.01
2017-02-23T00:15:17.936Z,68.01
2017-02-23T00:15:22.587Z,68.01
2017-02-23T00:15:27.236Z,68.01
2017-02-23T00:15:31.729Z,68.01
2017-02-23T00:15:36.381Z,68.11
2017-02-23T00:15:40.896Z,67.92
2017-02-23T00:15:45.541Z,67.92
2017-02-23T00:15:50.039Z,67.92
2017-02-23T00:15:54.538Z,68.01
2017-02-23T00:15:59.023Z,67.92
2017-02-23T00:16:03.773Z,67.92
2017-02-23T00:16:08.272Z,67.82
2017-02-23T00:16:12.766Z,67.82
2017-02-23T00:16:17.107Z,68.01
2017-02-23T00:16:21.766Z,68.01
2017-02-23T00:16:26.395Z,67.82
2017-02-23T00:16:31.039Z,67.82
2017-02-23T00:16:35.695Z,67.92
2017-02-23T00:16:40.359Z,68.01
2017-02-23T00:16:44.901Z,67.82
2017-02-23T00:16:49.408Z,67.82
2017-02-23T00:16:54.039Z,67.92
2017-02-23T00:16:58.694Z,68.01
2017-02-23T00:17:03.479Z,67.82
2017-02-23T00:17:08.130Z,67.82
2017-02-23T00:17:12.488Z,67.92
2017-02-23T00:17:16.975Z,67.82
2017-02-23T00:17:21.636Z,67.82
2017-02-23T00:17:26.260Z,68.01
2017-02-23T00:17:30.897Z,67.92
2017-02-23T00:17:35.551Z,67.92
2017-02-23T00:17:40.181Z,67.82
2017-02-23T00:17:44.813Z,68.11
2017-02-23T00:17:49.148Z,68.11
2017-02-23T00:17:53.807Z,68.01
2017-02-23T00:17:58.329Z,68.11
2017-02-23T00:18:02.982Z,68.11
2017-02-23T00:18:07.614Z,67.92
2017-02-23T00:18:11.949Z,67.92
2017-02-23T00:18:16.607Z,67.92
2017-02-23T00:18:21.254Z,67.73
2017-02-23T00:18:25.892Z,67.73
2017-02-23T00:18:30.532Z,67.92
2017-02-23T00:18:35.218Z,68.11
2017-02-23T00:18:39.854Z,68.01
2017-02-23T00:18:44.199Z,67.92
2017-02-23T00:18:48.729Z,67.92
2017-02-23T00:18:53.357Z,67.92
2017-02-23T00:18:58.005Z,67.92
2017-02-23T00:19:02.662Z,67.82
2017-02-23T00:19:07.295Z,67.92
2017-02-23T00:19:11.944Z,68.21
2017-02-23T00:19:16.598Z,67.82
2017-02-23T00:19:21.256Z,67.82
2017-02-23T00:19:25.901Z,67.92
2017-02-23T00:19:30.566Z,67.92
2017-02-23T00:19:35.217Z,67.92
2017-02-23T00:19:39.869Z,67.82
2017-02-23T00:19:44.375Z,68.11
2017-02-23T00:19:49.025Z,67.82
2017-02-23T00:19:53.663Z,68.21
2017-02-23T00:19:58.330Z,68.11
2017-02-23T00:20:03.029Z,67.92
2017-02-23T00:20:07.389Z,68.11
2017-02-23T00:20:11.767Z,68.11
2017-02-23T00:20:16.261Z,68.01
2017-02-23T00:20:20.912Z,68.01
2017-02-23T00:20:25.566Z,68.01
2017-02-23T00:20:30.254Z,67.92
2017-02-23T00:20:34.893Z,68.01
2017-02-23T00:20:39.541Z,67.92
2017-02-23T00:20:44.038Z,67.73
2017-02-23T00:20:48.528Z,67.73
2017-02-23T00:20:53.181Z,67.82
2017-02-23T00:20:57.671Z,68.11
2017-02-23T00:21:02.567Z,68.11
2017-02-23T00:21:07.194Z,67.92
2017-02-23T00:21:11.555Z,67.92
2017-02-23T00:21:16.190Z,67.92
2017-02-23T00:21:20.887Z,67.92
2017-02-23T00:21:25.533Z,68.01
2017-02-23T00:21:30.188Z,68.11
2017-02-23T00:21:34.837Z,67.92
2017-02-23T00:21:39.492Z,67.92
2017-02-23T00:21:43.996Z,67.82
2017-02-23T00:21:48.623Z,67.92
2017-02-23T00:21:53.265Z,68.01
2017-02-23T00:21:57.743Z,67.92
2017-02-23T00:22:02.373Z,67.82
2017-02-23T00:22:06.865Z,68.01
2017-02-23T00:22:11.227Z,68.11
2017-02-23T00:22:15.579Z,67.86
2017-02-23T00:22:20.219Z,68.01
2017-02-23T00:22:24.714Z,67.92
2017-02-23T00:22:29.367Z,67.92
2017-02-23T00:22:34.009Z,68.01
2017-02-23T00:22:38.666Z,68.11
2017-02-23T00:22:43.153Z,67.92
2017-02-23T00:22:47.665Z,68.11
2017-02-23T00:22:52.298Z,68.01
2017-02-23T00:22:56.791Z,67.92
2017-02-23T00:23:01.509Z,68.01
2017-02-23T00:23:05.993Z,67.92
2017-02-23T00:23:10.503Z,67.86
2017-02-23T00:23:15.153Z,67.82
2017-02-23T00:23:19.788Z,68.01
2017-02-23T00:23:24.424Z,67.63
2017-02-23T00:23:29.082Z,67.92
2017-02-23T00:23:33.730Z,67.82
2017-02-23T00:23:38.376Z,67.92
2017-02-23T00:23:43.028Z,67.63
2017-02-23T00:23:47.655Z,67.82
2017-02-23T00:23:52.304Z,67.92
2017-02-23T00:23:56.795Z,68.11
2017-02-23T00:24:01.429Z,67.82
2017-02-23T00:24:06.153Z,67.82
2017-02-23T00:24:10.507Z,67.92
2017-02-23T00:24:15.146Z,68.11
2017-02-23T00:24:19.835Z,68.11
2017-02-23T00:24:24.487Z,68.01
2017-02-23T00:24:29.136Z,67.92
2017-02-23T00:24:33.791Z,67.92
2017-02-23T00:24:38.276Z,68.11
2017-02-23T00:24:42.920Z,67.92
2017-02-23T00:24:47.406Z,67.92
2017-02-23T00:24:51.922Z,68.01
2017-02-23T00:24:56.560Z,67.92
2017-02-23T00:25:01.204Z,67.92
2017-02-23T00:25:05.696Z,67.92
2017-02-23T00:25:10.360Z,67.73
2017-02-23T00:25:14.716Z,67.92
2017-02-23T00:25:19.346Z,67.92
2017-02-23T00:25:23.978Z,68.01
2017-02-23T00:25:28.615Z,68.01
2017-02-23T00:25:33.269Z,68.01
2017-02-23T00:25:37.978Z,67.92
2017-02-23T00:25:42.620Z,67.92
2017-02-23T00:25:46.980Z,67.92
2017-02-23T00:25:51.481Z,67.92
2017-02-23T00:25:56.123Z,67.92
2017-02-23T00:26:00.758Z,68.11
2017-02-23T00:26:05.646Z,67.92
2017-02-23T00:26:10.136Z,67.73
2017-02-23T00:26:14.801Z,67.92
2017-02-23T00:26:19.441Z,67.92
2017-02-23T00:26:24.094Z,67.92
2017-02-23T00:26:28.726Z,67.92
2017-02-23T00:26:33.364Z,67.92
2017-02-23T00:26:38.014Z,67.82
2017-02-23T00:26:42.652Z,68.01
2017-02-23T00:26:47.009Z,67.92
2017-02-23T00:26:51.655Z,67.92
2017-02-23T00:26:56.278Z,67.73
2017-02-23T00:27:00.917Z,67.82
2017-02-23T00:27:05.705Z,67.92
2017-02-23T00:27:10.188Z,67.82
2017-02-23T00:27:14.530Z,67.73
2017-02-23T00:27:19.182Z,67.73
2017-02-23T00:27:23.828Z,67.54
2017-02-23T00:27:28.320Z,67.92
2017-02-23T00:27:32.941Z,67.92
2017-02-23T00:27:37.574Z,67.63
2017-02-23T00:27:42.206Z,67.63
2017-02-23T00:27:46.702Z,67.54
2017-02-23T00:27:51.207Z,67.63
2017-02-23T00:27:55.741Z,67.63
2017-02-23T00:28:00.393Z,67.63
2017-02-23T00:28:05.066Z,67.44
2017-02-23T00:28:09.723Z,68.4
2017-02-23T00:28:14.235Z,67.82
2017-02-23T00:28:18.875Z,67.82
2017-02-23T00:28:23.377Z,67.73
2017-02-23T00:28:28.045Z,67.73
2017-02-23T00:28:32.714Z,67.73
2017-02-23T00:28:37.365Z,67.54
2017-02-23T00:28:42.020Z,67.73
2017-02-23T00:28:46.507Z,67.63
2017-02-23T00:28:50.988Z,67.73
2017-02-23T00:28:55.495Z,67.63
2017-02-23T00:29:00.045Z,67.73
2017-02-23T00:29:04.943Z,67.63
2017-02-23T00:29:09.306Z,67.63
2017-02-23T00:29:13.654Z,67.92
2017-02-23T00:29:18.153Z,67.92
2017-02-23T00:29:22.794Z,67.54
2017-02-23T00:29:27.436Z,67.54
2017-02-23T00:29:32.076Z,67.54
2017-02-23T00:29:36.729Z,67.54
2017-02-23T00:29:41.227Z,67.54
2017-02-23T00:29:45.869Z,67.54
2017-02-23T00:29:50.365Z,67.54
2017-02-23T00:29:54.849Z,67.54
2017-02-23T00:29:59.345Z,67.82
2017-02-23T00:30:03.850Z,67.92
2017-02-23T00:30:08.329Z,67.54
2017-02-23T00:30:12.532Z,67.73
2017-02-23T00:30:16.881Z,67.92
2017-02-23T00:30:21.531Z,67.82
2017-02-23T00:30:26.186Z,67.54
2017-02-23T00:30:30.812Z,67.63
2017-02-23T00:30:35.460Z,67.54
2017-02-23T00:30:39.999Z,67.63
2017-02-23T00:30:44.631Z,67.54
2017-02-23T00:30:49.277Z,67.63
2017-02-23T00:30:53.820Z,67.54
2017-02-23T00:30:58.474Z,67.54
2017-02-23T00:31:03.128Z,67.44
2017-02-23T00:31:07.628Z,67.54
2017-02-23T00:31:12.131Z,67.54
2017-02-23T00:31:16.614Z,67.54
2017-02-23T00:31:21.257Z,67.54
2017-02-23T00:31:25.913Z,67.92
2017-02-23T00:31:30.563Z,67.54
2017-02-23T00:31:35.194Z,67.63
2017-02-23T00:31:39.841Z,67.92
2017-02-23T00:31:44.182Z,67.63
2017-02-23T00:31:48.513Z,67.92
2017-02-23T00:31:53.167Z,67.63
2017-02-23T00:31:57.655Z,67.63
2017-02-23T00:32:02.311Z,67.63
2017-02-23T00:32:06.814Z,67.54
2017-02-23T00:32:11.153Z,67.63
2017-02-23T00:32:15.640Z,67.54
2017-02-23T00:32:20.321Z,67.82
2017-02-23T00:32:24.955Z,67.63
2017-02-23T00:32:29.579Z,67.73
2017-02-23T00:32:34.237Z,67.73
2017-02-23T00:32:38.869Z,67.54
2017-02-23T00:32:43.202Z,67.63
2017-02-23T00:32:47.715Z,67.82
2017-02-23T00:32:52.353Z,67.63
2017-02-23T00:32:57.002Z,68.3
2017-02-23T00:33:01.499Z,68.21
2017-02-23T00:33:06.161Z,68.3
2017-02-23T00:33:10.656Z,68.3
2017-02-23T00:33:15.156Z,68.21
2017-02-23T00:33:19.779Z,67.92
2017-02-23T00:33:24.455Z,68.01
2017-02-23T00:33:29.090Z,68.21
2017-02-23T00:33:33.724Z,68.21
2017-02-23T00:33:38.380Z,68.3
2017-02-23T00:33:42.871Z,68.3
2017-02-23T00:33:47.511Z,68.21
2017-02-23T00:33:52.158Z,68.21
2017-02-23T00:33:56.791Z,68.24
2017-02-23T00:34:01.307Z,68.3
2017-02-23T00:34:05.811Z,68.21
2017-02-23T00:34:10.172Z,68.21
2017-02-23T00:34:14.809Z,68.01
2017-02-23T00:34:19.470Z,67.95
2017-02-23T00:34:23.951Z,67.92
2017-02-23T00:34:28.624Z,68.4
2017-02-23T00:34:33.283Z,68.3
2017-02-23T00:34:37.919Z,68.21
2017-02-23T00:34:42.567Z,68.21
2017-02-23T00:34:46.910Z,68.11
2017-02-23T00:34:51.589Z,68.05
2017-02-23T00:34:56.081Z,68.11
2017-02-23T00:35:00.419Z,68.11
2017-02-23T00:35:05.078Z,68.11
2017-02-23T00:35:09.724Z,68.3
2017-02-23T00:35:14.357Z,68.15
2017-02-23T00:35:19.010Z,68.21
2017-02-23T00:35:23.642Z,68.33
2017-02-23T00:35:28.273Z,68.11
2017-02-23T00:35:32.904Z,68.21
2017-02-23T00:35:37.533Z,68.4
2017-02-23T00:35:42.164Z,68.21
2017-02-23T00:35:46.669Z,68.01
2017-02-23T00:35:51.017Z,68.3
2017-02-23T00:35:55.655Z,67.82
2017-02-23T00:36:00.305Z,67.86
2017-02-23T00:36:04.941Z,67.82
2017-02-23T00:36:09.445Z,67.82
2017-02-23T00:36:13.943Z,67.86
2017-02-23T00:36:18.604Z,67.86
2017-02-23T00:36:23.255Z,67.57
2017-02-23T00:36:27.761Z,67.73
2017-02-23T00:36:32.404Z,67.54
2017-02-23T00:36:37.063Z,67.57
2017-02-23T00:36:41.707Z,67.44
2017-02-23T00:36:46.342Z,67.47
2017-02-23T00:36:50.991Z,67.73
2017-02-23T00:36:55.620Z,67.73
2017-02-23T00:37:00.274Z,67.63
2017-02-23T00:37:04.756Z,67.67
2017-02-23T00:37:09.237Z,67.47
2017-02-23T00:37:13.623Z,67.82
2017-02-23T00:37:18.263Z,67.92
2017-02-23T00:37:22.915Z,67.73
2017-02-23T00:37:27.561Z,67.73
2017-02-23T00:37:32.208Z,67.92
2017-02-23T00:37:36.868Z,67.82
2017-02-23T00:37:41.504Z,67.95
2017-02-23T00:37:46.163Z,67.76
2017-02-23T00:37:50.820Z,67.67
2017-02-23T00:37:55.327Z,67.73
2017-02-23T00:37:59.960Z,67.76
2017-02-23T00:38:04.891Z,67.67
2017-02-23T00:38:09.381Z,67.76
2017-02-23T00:38:13.874Z,67.67
2017-02-23T00:38:18.577Z,67.57
2017-02-23T00:38:23.223Z,67.86
2017-02-23T00:38:27.869Z,67.67
2017-02-23T00:38:32.507Z,67.86
2017-02-23T00:38:37.154Z,67.86
2017-02-23T00:38:41.843Z,68.05
2017-02-23T00:38:46.328Z,68.15
2017-02-23T00:38:51.012Z,67.86
2017-02-23T00:38:55.498Z,67.95
2017-02-23T00:39:00.147Z,68.15
2017-02-23T00:39:04.801Z,67.95
2017-02-23T00:39:09.487Z,67.76
2017-02-23T00:39:13.826Z,67.95
2017-02-23T00:39:18.472Z,68.05
2017-02-23T00:39:23.097Z,67.95
2017-02-23T00:39:27.759Z,67.95
2017-02-23T00:39:32.396Z,68.15
2017-02-23T00:39:37.038Z,68.15
2017-02-23T00:39:41.390Z,68.15
2017-02-23T00:39:45.889Z,67.38
2017-02-23T00:39:50.528Z,67.95
2017-02-23T00:39:55.055Z,68.05
2017-02-23T00:39:59.570Z,67.67
2017-02-23T00:40:04.064Z,67.38
2017-02-23T00:40:08.417Z,67.38
2017-02-23T00:40:12.777Z,67.57
2017-02-23T00:40:17.139Z,67.38
2017-02-23T00:40:21.638Z,66.91
2017-02-23T00:40:26.273Z,67.19
2017-02-23T00:40:30.917Z,67.19
2017-02-23T00:40:35.571Z,67.19
2017-02-23T00:40:40.253Z,67.19
2017-02-23T00:40:44.764Z,67.29
2017-02-23T00:40:49.262Z,67.19
2017-02-23T00:40:53.904Z,67.29
2017-02-23T00:40:58.408Z,67.29
2017-02-23T00:41:03.410Z,67.19
2017-02-23T00:41:07.898Z,67.38
2017-02-23T00:41:12.573Z,67.29
2017-02-23T00:41:16.913Z,67.29
2017-02-23T00:41:21.558Z,67.29
2017-02-23T00:41:26.195Z,67.29
2017-02-23T00:41:30.826Z,67.1
2017-02-23T00:41:35.475Z,67.19
2017-02-23T00:41:40.118Z,67.19
2017-02-23T00:41:44.758Z,67.29
2017-02-23T00:41:49.260Z,67.29
2017-02-23T00:41:53.882Z,67.38
2017-02-23T00:41:58.377Z,67
2017-02-23T00:42:03.027Z,67.38
2017-02-23T00:42:07.564Z,67.29
2017-02-23T00:42:12.214Z,67.29
2017-02-23T00:42:16.551Z,67.19
2017-02-23T00:42:21.044Z,67.19
2017-02-23T00:42:25.694Z,67.38
2017-02-23T00:42:30.347Z,67.29
2017-02-23T00:42:35.011Z,67
2017-02-23T00:42:39.661Z,67.19
2017-02-23T00:42:44.147Z,67.29
2017-02-23T00:42:48.487Z,67.1
2017-02-23T00:42:53.129Z,67.38
2017-02-23T00:42:57.770Z,67.29
2017-02-23T00:43:02.409Z,67.29
2017-02-23T00:43:07.069Z,67.29
2017-02-23T00:43:11.413Z,67.29
2017-02-23T00:43:15.920Z,67.57
2017-02-23T00:43:20.580Z,67.29
2017-02-23T00:43:25.089Z,67.47
2017-02-23T00:43:29.747Z,67.29
2017-02-23T00:43:34.229Z,67.57
2017-02-23T00:43:38.872Z,67.47
2017-02-23T00:43:43.361Z,67.47
2017-02-23T00:43:47.854Z,67.29
2017-02-23T00:43:52.494Z,67.47
2017-02-23T00:43:57.159Z,67.29
2017-02-23T00:44:01.809Z,67.29
2017-02-23T00:44:06.325Z,67.29
2017-02-23T00:44:10.381Z,67.19
2017-02-23T00:44:14.595Z,67.19
2017-02-23T00:44:19.246Z,67
2017-02-23T00:44:23.890Z,66.91
2017-02-23T00:44:28.522Z,67.19
2017-02-23T00:44:33.176Z,66.91
2017-02-23T00:44:37.827Z,66.91
2017-02-23T00:44:42.485Z,66.91
2017-02-23T00:44:46.986Z,66.91
2017-02-23T00:44:51.485Z,67
2017-02-23T00:44:55.980Z,67
2017-02-23T00:45:00.621Z,66.72
2017-02-23T00:45:05.269Z,66.91
2017-02-23T00:45:09.910Z,67.19
2017-02-23T00:45:14.418Z,66.91
2017-02-23T00:45:19.069Z,67.19
2017-02-23T00:45:23.746Z,67.19
2017-02-23T00:45:28.391Z,66.91
2017-02-23T00:45:32.888Z,66.81
2017-02-23T00:45:37.560Z,66.72
2017-02-23T00:45:42.201Z,66.81
2017-02-23T00:45:46.843Z,66.81
2017-02-23T00:45:51.512Z,66.72
2017-02-23T00:45:56.156Z,67.1
2017-02-23T00:46:00.828Z,66.91
2017-02-23T00:46:05.468Z,66.91
2017-02-23T00:46:09.658Z,67
2017-02-23T00:46:14.157Z,67.1
2017-02-23T00:46:18.655Z,67.1
2017-02-23T00:46:23.287Z,67.1
2017-02-23T00:46:27.920Z,66.72
2017-02-23T00:46:32.574Z,67
2017-02-23T00:46:37.097Z,66.91
2017-02-23T00:46:41.735Z,66.91
2017-02-23T00:46:46.229Z,66.91
2017-02-23T00:46:50.862Z,66.91
2017-02-23T00:46:55.553Z,66.72
2017-02-23T00:47:00.048Z,66.72
2017-02-23T00:47:04.887Z,66.81
2017-02-23T00:47:09.526Z,67.1
2017-02-23T00:47:13.725Z,66.81
2017-02-23T00:47:18.404Z,66.81
2017-02-23T00:47:23.037Z,67.1
2017-02-23T00:47:27.683Z,66.72
2017-02-23T00:47:32.331Z,66.62
2017-02-23T00:47:36.994Z,66.53
2017-02-23T00:47:41.636Z,66.62
2017-02-23T00:47:46.132Z,66.62
2017-02-23T00:47:50.785Z,66.62
2017-02-23T00:47:55.447Z,66.24
2017-02-23T00:47:59.944Z,66.53
2017-02-23T00:48:04.628Z,66.33
2017-02-23T00:48:09.119Z,66.43
2017-02-23T00:48:13.472Z,66.33
2017-02-23T00:48:17.980Z,66.33
2017-02-23T00:48:22.611Z,66.43
2017-02-23T00:48:27.241Z,66.33
2017-02-23T00:48:31.881Z,66.33
2017-02-23T00:48:36.525Z,66.33
2017-02-23T00:48:41.200Z,66.33
2017-02-23T00:48:45.869Z,66.33
2017-02-23T00:48:50.343Z,66.33
2017-02-23T00:48:54.840Z,66.33
2017-02-23T00:48:59.344Z,66.43
2017-02-23T00:49:04.046Z,66.72
2017-02-23T00:49:08.683Z,66.72
2017-02-23T00:49:13.164Z,66.72
2017-02-23T00:49:17.645Z,66.72
2017-02-23T00:49:22.273Z,66.72
2017-02-23T00:49:26.918Z,66.72
2017-02-23T00:49:31.563Z,66.53
2017-02-23T00:49:36.204Z,66.62
2017-02-23T00:49:40.832Z,66.62
2017-02-23T00:49:45.313Z,66.72
2017-02-23T00:49:49.799Z,66.72
2017-02-23T00:49:54.158Z,66.53
2017-02-23T00:49:58.654Z,66.72
2017-02-23T00:50:03.351Z,66.72
2017-02-23T00:50:07.853Z,66.72
2017-02-23T00:50:12.352Z,66.62
2017-02-23T00:50:16.691Z,66.72
2017-02-23T00:50:21.323Z,66.53
2017-02-23T00:50:25.963Z,66.62
2017-02-23T00:50:30.595Z,66.62
2017-02-23T00:50:35.230Z,66.72
2017-02-23T00:50:39.877Z,66.62
2017-02-23T00:50:44.533Z,66.81
2017-02-23T00:50:49.213Z,66.62
2017-02-23T00:50:53.703Z,66.53
2017-02-23T00:50:58.329Z,66.72
2017-02-23T00:51:02.969Z,66.62
2017-02-23T00:51:07.605Z,66.53
2017-02-23T00:51:12.106Z,66.62
2017-02-23T00:51:16.745Z,66.72
2017-02-23T00:51:21.399Z,66.72
2017-02-23T00:51:26.045Z,66.53
2017-02-23T00:51:30.694Z,66.53
2017-02-23T00:51:35.341Z,66.53
2017-02-23T00:51:39.985Z,66.62
2017-02-23T00:51:44.612Z,66.53
2017-02-23T00:51:49.254Z,66.53
2017-02-23T00:51:53.883Z,66.62
2017-02-23T00:51:58.372Z,66.72
2017-02-23T00:52:03.314Z,66.53
2017-02-23T00:52:07.988Z,66.72
2017-02-23T00:52:12.475Z,66.53
2017-02-23T00:52:16.974Z,66.72
2017-02-23T00:52:21.620Z,66.53
2017-02-23T00:52:26.265Z,66.53
2017-02-23T00:52:30.903Z,66.62
2017-02-23T00:52:35.563Z,66.43
2017-02-23T00:52:40.208Z,66.33
2017-02-23T00:52:44.858Z,66.33
2017-02-23T00:52:49.365Z,66.33
2017-02-23T00:52:54.007Z,66.43
2017-02-23T00:52:58.509Z,66.33
2017-02-23T00:53:03.097Z,66.33
2017-02-23T00:53:07.742Z,66.43
2017-02-23T00:53:12.105Z,66.33
2017-02-23T00:53:16.594Z,66.33
2017-02-23T00:53:21.092Z,66.33
2017-02-23T00:53:25.725Z,66.33
2017-02-23T00:53:30.371Z,66.33
2017-02-23T00:53:35.030Z,66.43
2017-02-23T00:53:39.653Z,66.33
2017-02-23T00:53:44.302Z,66.33
2017-02-23T00:53:48.806Z,66.43
2017-02-23T00:53:53.308Z,66.53
2017-02-23T00:53:57.947Z,66.43
2017-02-23T00:54:02.595Z,66.53
2017-02-23T00:54:07.104Z,66.24
2017-02-23T00:54:11.462Z,66.62
2017-02-23T00:54:16.113Z,66.24
2017-02-23T00:54:21.046Z,66.72
2017-02-23T00:54:25.683Z,66.53
2017-02-23T00:54:30.339Z,66.62
2017-02-23T00:54:34.975Z,67
2017-02-23T00:54:39.647Z,66.78
2017-02-23T00:54:44.289Z,66.62
2017-02-23T00:54:48.941Z,66.72
2017-02-23T00:54:53.585Z,66.33
2017-02-23T00:54:58.242Z,66.59
2017-02-23T00:55:02.879Z,66.62
2017-02-23T00:55:07.228Z,66.68
2017-02-23T00:55:11.742Z,66.59
2017-02-23T00:55:16.100Z,66.53
2017-02-23T00:55:20.750Z,66.62
2017-02-23T00:55:25.388Z,66.62
2017-02-23T00:55:30.029Z,66.62
2017-02-23T00:55:34.685Z,66.59
2017-02-23T00:55:39.318Z,66.68
2017-02-23T00:55:43.956Z,66.68
2017-02-23T00:55:48.447Z,66.62
2017-02-23T00:55:53.086Z,66.59
2017-02-23T00:55:57.639Z,67
2017-02-23T00:56:02.294Z,66.68
2017-02-23T00:56:06.928Z,66.59
2017-02-23T00:56:11.136Z,66.59
2017-02-23T00:56:15.352Z,66.62
2017-02-23T00:56:20.033Z,66.91
2017-02-23T00:56:24.403Z,66.68
2017-02-23T00:56:29.043Z,66.68
2017-02-23T00:56:33.538Z,66.62
2017-02-23T00:56:38.050Z,66.97
2017-02-23T00:56:42.692Z,66.91
2017-02-23T00:56:47.190Z,67
2017-02-23T00:56:51.849Z,66.81
2017-02-23T00:56:56.341Z,66.62
2017-02-23T00:57:00.983Z,67.19
2017-02-23T00:57:05.634Z,66.81
2017-02-23T00:57:10.126Z,66.87
2017-02-23T00:57:14.800Z,67.16
2017-02-23T00:57:19.455Z,66.81
2017-02-23T00:57:23.952Z,66.81
2017-02-23T00:57:28.582Z,66.78
2017-02-23T00:57:33.220Z,67.1
2017-02-23T00:57:37.870Z,66.78
2017-02-23T00:57:42.521Z,67.16
2017-02-23T00:57:47.163Z,66.81
2017-02-23T00:57:51.793Z,67.16
2017-02-23T00:57:56.439Z,66.91
2017-02-23T00:58:01.084Z,66.78
2017-02-23T00:58:05.728Z,66.68
2017-02-23T00:58:09.926Z,66.62
2017-02-23T00:58:14.555Z,66.53
2017-02-23T00:58:19.045Z,66.81
2017-02-23T00:58:23.534Z,66.81
2017-02-23T00:58:28.172Z,67.1
2017-02-23T00:58:32.825Z,66.78
2017-02-23T00:58:37.461Z,67.1
2017-02-23T00:58:42.096Z,66.78
2017-02-23T00:58:46.434Z,66.59
2017-02-23T00:58:51.077Z,66.62
2017-02-23T00:58:55.709Z,67.07
2017-02-23T00:59:00.356Z,67
2017-02-23T00:59:04.996Z,66.81
2017-02-23T00:59:09.656Z,66.49
2017-02-23T00:59:14.144Z,67.07
2017-02-23T00:59:18.782Z,67